createdAt,value
2019-01-19T14:19:00.147Z,4.48
2019-01-19T14:20:00.211Z,4.48
2019-01-19T14:21:00.227Z,4.45
2019-01-19T14:22:00.280Z,4.45
2019-01-19T14:23:00.332Z,4.42
2019-01-19T14:24:00.392Z,4.32
2019-01-19T14:25:00.450Z,4.38
2019-01-19T14:26:01.252Z,4.24
2019-01-19T14:27:00.562Z,4.24
2019-01-19T14:28:00.608Z,4.31
2019-01-19T14:29:00.672Z,4.23
2019-01-19T14:30:00.728Z,4.24
2019-01-19T14:31:00.780Z,4.26
2019-01-19T14:32:00.840Z,4.28
2019-01-19T14:33:00.894Z,4.26
2019-01-19T14:34:00.956Z,4.28
2019-01-19T14:35:01.017Z,4.26
2019-01-19T14:36:01.064Z,4.23
2019-01-19T14:37:01.124Z,4.14
2019-01-19T14:38:01.180Z,4.17
2019-01-19T14:39:01.281Z,4.12
2019-01-19T14:40:01.303Z,4.02
2019-01-19T14:41:01.356Z,4.10
2019-01-19T14:42:01.418Z,4.08
2019-01-19T14:43:01.477Z,4.14
2019-01-19T14:44:01.545Z,4.08
2019-01-19T14:45:01.601Z,4.05
2019-01-19T14:46:01.653Z,4.08
2019-01-19T14:47:01.713Z,4.05
2019-01-19T14:48:01.775Z,4.04
2019-01-19T14:49:01.844Z,4.06
2019-01-19T14:50:01.897Z,4.05
2019-01-19T14:51:01.949Z,3.99
2019-01-19T14:52:02.012Z,4.02
2019-01-19T14:53:02.070Z,4.01
2019-01-19T14:54:02.130Z,3.98
2019-01-19T14:55:02.334Z,3.98
2019-01-19T14:56:02.246Z,3.87
2019-01-19T14:57:02.308Z,3.99
2019-01-19T14:58:02.366Z,3.91
2019-01-19T14:59:02.490Z,3.83
2019-01-19T15:00:02.497Z,3.84
2019-01-19T15:01:02.586Z,3.84
2019-01-19T15:02:02.658Z,3.91
2019-01-19T15:03:02.762Z,3.91
2019-01-19T15:04:02.726Z,3.83
2019-01-19T15:05:02.790Z,3.84
2019-01-19T15:06:03.014Z,3.73
2019-01-19T15:07:02.902Z,3.63
2019-01-19T15:08:02.962Z,3.70
2019-01-19T15:09:03.943Z,3.73
2019-01-19T15:10:03.178Z,3.66
2019-01-19T15:11:03.152Z,3.66
2019-01-19T15:12:03.202Z,3.58
2019-01-19T15:13:03.267Z,3.58
2019-01-19T15:14:03.322Z,3.56
2019-01-19T15:15:03.390Z,3.51
2019-01-19T15:16:03.446Z,3.45
2019-01-19T15:17:03.498Z,3.47
2019-01-19T15:18:03.560Z,3.45
2019-01-19T15:19:03.618Z,3.41
2019-01-19T15:20:03.683Z,3.23
2019-01-19T15:21:03.746Z,3.34
2019-01-19T15:22:03.795Z,3.32
2019-01-19T15:23:03.855Z,3.28
2019-01-19T15:24:03.916Z,3.25
2019-01-19T15:25:03.991Z,3.25
2019-01-19T15:26:04.049Z,3.23
2019-01-19T15:27:04.091Z,3.11
2019-01-19T15:28:04.150Z,3.22
2019-01-19T15:29:04.211Z,3.16
2019-01-19T15:30:04.287Z,3.13
2019-01-19T15:31:04.351Z,3.10
2019-01-19T15:32:04.391Z,3.11
2019-01-19T15:33:04.451Z,3.01
2019-01-19T15:34:04.507Z,3.05
2019-01-19T15:35:04.575Z,3.03
2019-01-19T15:36:04.635Z,3.08
2019-01-19T15:37:04.688Z,3.01
2019-01-19T15:38:04.744Z,2.93
2019-01-19T15:39:10.751Z,2.95
2019-01-19T15:40:04.872Z,2.93
2019-01-19T15:41:04.932Z,2.86
2019-01-19T15:42:04.982Z,2.79
2019-01-19T15:43:05.040Z,2.83
2019-01-19T15:44:05.100Z,2.86
2019-01-19T15:45:05.252Z,2.79
2019-01-19T15:46:05.220Z,2.69
2019-01-19T15:47:05.640Z,2.74
2019-01-19T15:48:05.336Z,2.67
2019-01-19T15:49:05.397Z,2.62
2019-01-19T15:50:05.460Z,2.68
2019-01-19T15:51:05.524Z,2.67
2019-01-19T15:52:05.579Z,2.54
2019-01-19T15:53:05.632Z,2.47
2019-01-19T15:54:05.689Z,2.53
2019-01-19T15:55:05.756Z,2.49
2019-01-19T15:56:05.816Z,2.50
2019-01-19T15:57:05.872Z,2.51
2019-01-19T15:58:05.926Z,2.49
2019-01-19T15:59:05.998Z,2.50
2019-01-19T16:00:06.045Z,2.49
2019-01-19T16:01:06.197Z,2.43
2019-01-19T16:02:06.169Z,2.46
2019-01-19T16:03:06.220Z,2.36
2019-01-19T16:04:06.289Z,2.36
2019-01-19T16:05:06.341Z,2.36
2019-01-19T16:06:06.405Z,2.36
2019-01-19T16:07:06.461Z,2.35
2019-01-19T16:08:06.513Z,2.28
2019-01-19T16:09:06.575Z,2.39
2019-01-19T16:10:06.629Z,2.32
2019-01-19T16:11:06.697Z,2.25
2019-01-19T16:12:06.797Z,2.32
2019-01-19T16:13:06.805Z,2.28
2019-01-19T16:14:06.870Z,2.22
2019-01-19T16:15:06.922Z,2.07
2019-01-19T16:16:06.990Z,2.15
2019-01-19T16:17:07.054Z,2.07
2019-01-19T16:18:07.099Z,1.97
2019-01-19T16:19:07.158Z,2.10
2019-01-19T16:20:07.218Z,2.06
2019-01-19T16:21:07.274Z,2.06
2019-01-19T16:22:07.354Z,2.02
2019-01-19T16:23:07.390Z,1.95
2019-01-19T16:24:07.450Z,2.02
2019-01-19T16:25:07.506Z,2.04
2019-01-19T16:26:07.563Z,2.04
2019-01-19T16:27:07.635Z,2.07
2019-01-19T16:28:07.692Z,2.08
2019-01-19T16:29:07.738Z,2.02
2019-01-19T16:30:07.799Z,1.99
2019-01-19T16:31:07.858Z,2.02
2019-01-19T16:32:08.325Z,1.92
2019-01-19T16:33:07.979Z,1.94
2019-01-19T16:34:08.030Z,1.78
2019-01-19T16:35:08.088Z,1.73
2019-01-19T16:36:08.151Z,1.71
2019-01-19T16:37:08.299Z,1.73
2019-01-19T16:38:08.259Z,1.76
2019-01-19T16:39:08.324Z,1.67
2019-01-19T16:40:08.379Z,1.74
2019-01-19T16:41:08.435Z,1.63
2019-01-19T16:42:08.499Z,1.63
2019-01-19T16:43:08.559Z,1.66
2019-01-19T16:44:08.615Z,1.66
2019-01-19T16:45:08.667Z,1.55
2019-01-19T16:46:08.726Z,1.56
2019-01-19T16:47:08.792Z,1.45
2019-01-19T16:48:08.847Z,1.37
2019-01-19T16:49:08.899Z,1.37
2019-01-19T16:50:08.959Z,1.40
2019-01-19T16:51:09.013Z,1.31
2019-01-19T16:52:09.088Z,1.28
2019-01-19T16:53:09.130Z,1.26
2019-01-19T16:54:09.188Z,1.19
2019-01-19T16:55:09.246Z,1.22
2019-01-19T16:56:09.306Z,1.28
2019-01-19T16:57:09.368Z,1.23
2019-01-19T16:58:09.428Z,1.10
2019-01-19T16:59:09.476Z,1.16
2019-01-19T17:00:09.532Z,1.19
2019-01-19T17:01:09.592Z,1.22
2019-01-19T17:02:09.656Z,1.14
2019-01-19T17:03:09.712Z,1.16
2019-01-19T17:04:09.764Z,1.12
2019-01-19T17:05:09.824Z,1.22
2019-01-19T17:06:09.888Z,1.19
2019-01-19T17:07:09.948Z,1.24
2019-01-19T17:08:10.000Z,1.20
2019-01-19T17:09:10.049Z,1.22
2019-01-19T17:10:10.111Z,1.22
2019-01-19T17:11:10.173Z,1.19
2019-01-19T17:12:10.257Z,1.20
2019-01-19T17:13:10.509Z,1.12
2019-01-19T17:14:10.341Z,1.13
2019-01-19T17:15:10.397Z,1.16
2019-01-19T17:16:10.457Z,1.10
2019-01-19T17:17:10.521Z,1.05
2019-01-19T17:18:10.577Z,1.05
2019-01-19T17:19:10.629Z,1.04
2019-01-19T17:20:10.685Z,0.99
2019-01-19T17:21:10.741Z,1.06
2019-01-19T17:22:10.809Z,1.05
2019-01-19T17:23:10.869Z,0.95
2019-01-19T17:24:10.915Z,0.96
2019-01-19T17:25:10.977Z,0.88
2019-01-19T17:26:11.032Z,0.77
2019-01-19T17:27:11.213Z,0.83
2019-01-19T17:28:11.145Z,0.83
2019-01-19T17:29:11.202Z,0.84
2019-01-19T17:30:11.255Z,0.74
2019-01-19T17:31:11.318Z,0.83
2019-01-19T17:32:11.382Z,0.83
2019-01-19T17:33:11.438Z,0.83
2019-01-19T17:34:11.490Z,0.80
2019-01-19T17:35:11.574Z,0.86
2019-01-19T17:36:11.607Z,0.83
2019-01-19T17:37:11.670Z,0.78
2019-01-19T17:38:11.726Z,0.77
2019-01-19T17:39:11.778Z,0.74
2019-01-19T17:40:11.834Z,0.68
2019-01-19T17:41:11.902Z,0.83
2019-01-19T17:42:11.954Z,0.73
2019-01-19T17:43:12.010Z,0.68
2019-01-19T17:44:12.066Z,0.68
2019-01-19T17:45:12.119Z,0.65
2019-01-19T17:46:12.174Z,0.66
2019-01-19T17:47:12.331Z,0.62
2019-01-19T17:48:12.294Z,0.68
2019-01-19T17:49:12.350Z,0.62
2019-01-19T17:50:12.403Z,0.60
2019-01-19T17:51:12.471Z,0.62
2019-01-19T17:52:12.527Z,0.59
2019-01-19T17:53:12.583Z,0.58
2019-01-19T17:54:12.631Z,0.66
2019-01-19T17:55:12.717Z,0.62
2019-01-19T17:56:12.747Z,0.69
2019-01-19T17:57:12.811Z,0.65
2019-01-19T17:58:12.866Z,0.63
2019-01-19T17:59:12.921Z,0.63
2019-01-19T18:00:12.975Z,0.63
2019-01-19T18:01:13.031Z,0.66
2019-01-19T18:02:13.191Z,0.66
2019-01-19T18:03:13.147Z,0.70
2019-01-19T18:04:13.205Z,0.58
2019-01-19T18:05:13.259Z,0.55
2019-01-19T18:06:13.315Z,0.55
2019-01-19T18:07:13.384Z,0.60
2019-01-19T18:08:13.439Z,0.50
2019-01-19T18:09:13.490Z,0.58
2019-01-19T18:10:13.544Z,0.65
2019-01-19T18:11:13.600Z,0.59
2019-01-19T18:12:13.670Z,0.63
2019-01-19T18:13:13.723Z,0.44
2019-01-19T18:14:13.772Z,0.58
2019-01-19T18:15:13.828Z,0.52
2019-01-19T18:16:13.888Z,0.50
2019-01-19T18:17:13.952Z,0.52
2019-01-19T18:18:14.008Z,0.47
2019-01-19T18:19:14.056Z,0.55
2019-01-19T18:20:14.112Z,0.56
2019-01-19T18:21:14.172Z,0.56
2019-01-19T18:22:14.336Z,0.55
2019-01-19T18:23:14.284Z,0.58
2019-01-19T18:24:14.346Z,0.58
2019-01-19T18:25:14.400Z,0.59
2019-01-19T18:26:14.456Z,0.56
2019-01-19T18:27:14.520Z,0.60
2019-01-19T18:28:14.577Z,0.56
2019-01-19T18:29:14.625Z,0.52
2019-01-19T18:30:14.681Z,0.55
2019-01-19T18:31:14.741Z,0.58
2019-01-19T18:32:14.805Z,0.50
2019-01-19T18:33:14.869Z,0.47
2019-01-19T18:34:14.911Z,0.39
2019-01-19T18:35:14.966Z,0.39
2019-01-19T18:36:15.025Z,0.36
2019-01-19T18:37:15.153Z,0.39
2019-01-19T18:38:15.138Z,0.39
2019-01-19T18:39:15.193Z,0.32
2019-01-19T18:40:15.250Z,0.36
2019-01-19T18:41:15.305Z,0.41
2019-01-19T18:42:15.461Z,0.37
2019-01-19T18:43:15.436Z,0.37
2019-01-19T18:44:15.478Z,0.34
2019-01-19T18:45:15.565Z,0.34
2019-01-19T18:46:15.600Z,0.39
2019-01-19T18:47:15.669Z,0.29
2019-01-19T18:48:15.729Z,0.34
2019-01-19T18:49:15.766Z,0.29
2019-01-19T18:50:15.826Z,0.32
2019-01-19T18:51:15.876Z,0.32
2019-01-19T18:52:15.939Z,0.31
2019-01-19T18:53:16.032Z,0.34
2019-01-19T18:54:16.055Z,0.28
2019-01-19T18:55:16.099Z,0.37
2019-01-19T18:56:16.154Z,0.36
2019-01-19T18:57:16.286Z,0.41
2019-01-19T18:58:16.270Z,0.46
2019-01-19T18:59:16.326Z,0.37
2019-01-19T19:00:16.385Z,0.44
2019-01-19T19:01:16.443Z,0.44
2019-01-19T19:02:16.502Z,0.44
2019-01-19T19:03:16.559Z,0.50
2019-01-19T19:04:16.606Z,0.58
2019-01-19T19:05:16.663Z,0.49
2019-01-19T19:06:16.719Z,0.50
2019-01-19T19:07:16.782Z,0.37
2019-01-19T19:08:16.839Z,0.36
2019-01-19T19:09:16.891Z,0.36
2019-01-19T19:10:16.951Z,0.39
2019-01-19T19:11:17.003Z,0.39
2019-01-19T19:12:17.067Z,0.46
2019-01-19T19:13:17.124Z,0.39
2019-01-19T19:14:17.175Z,0.40
2019-01-19T19:15:17.227Z,0.36
2019-01-19T19:16:17.284Z,0.34
2019-01-19T19:17:17.347Z,0.34
2019-01-19T19:18:17.404Z,0.22
2019-01-19T19:19:17.451Z,0.23
2019-01-19T19:20:17.507Z,0.19
2019-01-19T19:21:17.564Z,0.23
2019-01-19T19:22:17.632Z,0.22
2019-01-19T19:23:17.684Z,0.31
2019-01-19T19:24:17.732Z,0.23
2019-01-19T19:25:17.792Z,0.21
2019-01-19T19:26:17.844Z,0.22
2019-01-19T19:27:17.908Z,0.26
2019-01-19T19:28:17.967Z,0.15
2019-01-19T19:29:18.016Z,0.21
2019-01-19T19:30:18.073Z,0.19
2019-01-19T19:31:18.129Z,0.21
2019-01-19T19:32:18.215Z,0.19
2019-01-19T19:33:18.240Z,0.19
2019-01-19T19:34:18.298Z,0.22
2019-01-19T19:35:18.357Z,0.07
2019-01-19T19:36:18.408Z,0.10
2019-01-19T19:37:18.476Z,0.07
2019-01-19T19:38:18.529Z,0.07
2019-01-19T19:39:18.577Z,0.15
2019-01-19T19:40:18.634Z,0.10
2019-01-19T19:41:18.688Z,0.16
2019-01-19T19:42:18.753Z,0.11
2019-01-19T19:43:18.813Z,0.11
2019-01-19T19:44:18.857Z,0.05
2019-01-19T19:45:18.915Z,0.00
2019-01-19T19:46:18.969Z,0.00
2019-01-19T19:47:19.033Z,-0.07
2019-01-19T19:48:19.090Z,0.05
2019-01-19T19:49:19.143Z,0.07
2019-01-19T19:50:19.193Z,0.00
2019-01-19T19:51:19.249Z,-0.02
2019-01-19T19:52:19.313Z,-0.02
2019-01-19T19:53:19.373Z,-0.07
2019-01-19T19:54:19.423Z,-0.14
2019-01-19T19:55:19.476Z,-0.23
2019-01-19T19:56:19.529Z,-0.18
2019-01-19T19:57:19.594Z,-0.15
2019-01-19T19:58:19.650Z,-0.18
2019-01-19T19:59:19.698Z,-0.07
2019-01-19T20:00:19.754Z,-0.28
2019-01-19T20:01:19.814Z,-0.29
2019-01-19T20:02:19.874Z,-0.34
2019-01-19T20:03:19.939Z,-0.36
2019-01-19T20:04:19.978Z,-0.38
2019-01-19T20:05:20.038Z,-0.32
2019-01-19T20:06:20.114Z,-0.44
2019-01-19T20:07:20.234Z,-0.43
2019-01-19T20:08:20.206Z,-0.38
2019-01-19T20:09:20.262Z,-0.36
2019-01-19T20:10:20.315Z,-0.38
2019-01-19T20:11:20.374Z,-0.41
2019-01-19T20:12:20.438Z,-0.41
2019-01-19T20:13:20.494Z,-0.36
2019-01-19T20:14:20.543Z,-0.36
2019-01-19T20:15:20.599Z,-0.41
2019-01-19T20:16:20.654Z,-0.35
2019-01-19T20:17:20.718Z,-0.35
2019-01-19T20:18:20.780Z,-0.36
2019-01-19T20:19:20.823Z,-0.38
2019-01-19T20:20:20.878Z,-0.39
2019-01-19T20:21:20.935Z,-0.29
2019-01-19T20:22:20.995Z,-0.31
2019-01-19T20:23:21.051Z,-0.36
2019-01-19T20:24:21.103Z,-0.34
2019-01-19T20:25:21.159Z,-0.31
2019-01-19T20:26:21.211Z,-0.38
2019-01-19T20:27:21.362Z,-0.31
2019-01-19T20:28:21.327Z,-0.36
2019-01-19T20:29:21.387Z,-0.32
2019-01-19T20:30:21.435Z,-0.39
2019-01-19T20:31:21.495Z,-0.38
2019-01-19T20:32:21.555Z,-0.39
2019-01-19T20:33:21.617Z,-0.38
2019-01-19T20:34:21.659Z,-0.36
2019-01-19T20:35:21.715Z,-0.46
2019-01-19T20:36:21.776Z,-0.46
2019-01-19T20:37:21.836Z,-0.47
2019-01-19T20:38:21.892Z,-0.46
2019-01-19T20:39:21.940Z,-0.46
2019-01-19T20:40:24.545Z,-0.57
2019-01-19T20:41:22.052Z,-0.56
2019-01-19T20:42:22.204Z,-0.56
2019-01-19T20:43:22.165Z,-0.52
2019-01-19T20:44:22.220Z,-0.59
2019-01-19T20:45:22.276Z,-0.61
2019-01-19T20:46:22.328Z,-0.57
2019-01-19T20:47:22.392Z,-0.57
2019-01-19T20:48:22.448Z,-0.56
2019-01-19T20:49:22.500Z,-0.54
2019-01-19T20:50:22.553Z,-0.62
2019-01-19T20:51:22.608Z,-0.59
2019-01-19T20:52:22.805Z,-0.56
2019-01-19T20:53:22.728Z,-0.57
2019-01-19T20:54:22.780Z,-0.53
2019-01-19T20:55:22.833Z,-0.61
2019-01-19T20:56:22.888Z,-0.56
2019-01-19T20:57:22.953Z,-0.61
2019-01-19T20:58:23.009Z,-0.59
2019-01-19T20:59:23.057Z,-0.62
2019-01-19T21:00:23.113Z,-0.70
2019-01-19T21:01:23.169Z,-0.56
2019-01-19T21:02:23.277Z,-0.71
2019-01-19T21:03:23.277Z,-0.62
2019-01-19T21:04:23.343Z,-0.67
2019-01-19T21:05:23.389Z,-0.67
2019-01-19T21:06:23.446Z,-0.72
2019-01-19T21:07:23.613Z,-0.83
2019-01-19T21:08:23.569Z,-0.78
2019-01-19T21:09:23.613Z,-0.86
2019-01-19T21:10:23.670Z,-0.86
2019-01-19T21:11:23.725Z,-0.91
2019-01-19T21:12:23.825Z,-0.99
2019-01-19T21:13:23.845Z,-0.99
2019-01-19T21:14:23.894Z,-1.01
2019-01-19T21:15:23.950Z,-1.11
2019-01-19T21:16:24.006Z,-1.14
2019-01-19T21:17:24.066Z,-1.09
